sensor_id;sensor_type;location;lat;lon;timestamp;P1;durP1;ratioP1;P2;durP2;ratioP2
68921;SDS011;55959;51.244;5.724;2024-03-23T00:54:01;5.47;;;2.00;;
68921;SDS011;55959;51.244;5.724;2024-03-23T00:56:28;4.60;;;1.70;;
68921;SDS011;55959;51.244;5.724;2024-03-23T00:58:54;4.87;;;1.90;;
68921;SDS011;55959;51.244;5.724;2024-03-23T01:01:20;6.63;;;1.83;;
68921;SDS011;55959;51.244;5.724;2024-03-23T01:03:46;5.67;;;1.80;;
68921;SDS011;55959;51.244;5.724;2024-03-23T01:06:12;4.47;;;1.77;;
68921;SDS011;55959;51.244;5.724;2024-03-23T01:08:37;4.50;;;2.07;;
68921;SDS011;55959;51.244;5.724;2024-03-23T01:11:03;4.77;;;2.03;;
68921;SDS011;55959;51.244;5.724;2024-03-23T01:13:29;6.50;;;2.20;;
68921;SDS011;55959;51.244;5.724;2024-03-23T01:15:56;5.90;;;2.07;;
68921;SDS011;55959;51.244;5.724;2024-03-23T01:18:22;7.77;;;1.97;;
68921;SDS011;55959;51.244;5.724;2024-03-23T01:20:49;5.87;;;2.27;;
68921;SDS011;55959;51.244;5.724;2024-03-23T01:23:15;4.97;;;2.17;;
68921;SDS011;55959;51.244;5.724;2024-03-23T01:25:41;5.67;;;2.00;;
68921;SDS011;55959;51.244;5.724;2024-03-23T01:28:06;6.60;;;2.23;;
68921;SDS011;55959;51.244;5.724;2024-03-23T01:30:33;4.20;;;2.23;;
68921;SDS011;55959;51.244;5.724;2024-03-23T01:32:59;5.87;;;2.13;;
68921;SDS011;55959;51.244;5.724;2024-03-23T01:35:26;5.93;;;2.10;;
68921;SDS011;55959;51.244;5.724;2024-03-23T01:37:51;6.67;;;2.47;;
68921;SDS011;55959;51.244;5.724;2024-03-23T01:40:17;4.37;;;1.80;;
68921;SDS011;55959;51.244;5.724;2024-03-23T01:42:54;5.83;;;2.63;;
68921;SDS011;55959;51.244;5.724;2024-03-23T01:45:21;5.40;;;1.77;;
68921;SDS011;55959;51.244;5.724;2024-03-23T01:47:48;4.13;;;1.80;;
68921;SDS011;55959;51.244;5.724;2024-03-23T01:50:17;3.40;;;1.70;;
68921;SDS011;55959;51.244;5.724;2024-03-23T01:52:44;5.73;;;1.87;;
68921;SDS011;55959;51.244;5.724;2024-03-23T01:55:11;4.50;;;1.97;;
68921;SDS011;55959;51.244;5.724;2024-03-23T01:57:37;4.67;;;1.57;;
68921;SDS011;55959;51.244;5.724;2024-03-23T02:00:03;4.10;;;2.00;;
68921;SDS011;55959;51.244;5.724;2024-03-23T02:02:30;4.97;;;2.00;;
68921;SDS011;55959;51.244;5.724;2024-03-23T02:04:58;3.33;;;1.60;;
68921;SDS011;55959;51.244;5.724;2024-03-23T02:07:24;4.77;;;1.80;;
68921;SDS011;55959;51.244;5.724;2024-03-23T02:09:53;4.90;;;2.10;;
68921;SDS011;55959;51.244;5.724;2024-03-23T02:12:19;6.40;;;2.27;;
68921;SDS011;55959;51.244;5.724;2024-03-23T02:14:46;8.13;;;2.60;;
68921;SDS011;55959;51.244;5.724;2024-03-23T02:17:12;6.57;;;2.10;;
68921;SDS011;55959;51.244;5.724;2024-03-23T02:19:38;8.00;;;2.37;;
68921;SDS011;55959;51.244;5.724;2024-03-23T02:22:04;4.23;;;1.87;;
68921;SDS011;55959;51.244;5.724;2024-03-23T02:24:30;4.30;;;1.87;;
68921;SDS011;55959;51.244;5.724;2024-03-23T02:26:56;6.50;;;2.17;;
68921;SDS011;55959;51.244;5.724;2024-03-23T02:29:21;3.30;;;2.00;;
68921;SDS011;55959;51.244;5.724;2024-03-23T02:31:47;3.00;;;1.67;;
68921;SDS011;55959;51.244;5.724;2024-03-23T02:34:13;4.43;;;1.90;;
68921;SDS011;55959;51.244;5.724;2024-03-23T02:36:39;3.30;;;1.73;;
68921;SDS011;55959;51.244;5.724;2024-03-23T02:39:04;6.00;;;2.17;;
68921;SDS011;55959;51.244;5.724;2024-03-23T02:41:30;4.53;;;1.67;;
68921;SDS011;55959;51.244;5.724;2024-03-23T02:43:56;6.63;;;2.50;;
68921;SDS011;55959;51.244;5.724;2024-03-23T02:46:21;7.37;;;2.80;;
68921;SDS011;55959;51.244;5.724;2024-03-23T02:48:50;9.00;;;2.83;;
68921;SDS011;55959;51.244;5.724;2024-03-23T02:51:16;8.20;;;3.20;;
68921;SDS011;55959;51.244;5.724;2024-03-23T02:53:42;5.97;;;2.23;;
68921;SDS011;55959;51.244;5.724;2024-03-23T02:56:07;6.47;;;2.23;;
68921;SDS011;55959;51.244;5.724;2024-03-23T02:58:33;4.17;;;2.60;;
68921;SDS011;55959;51.244;5.724;2024-03-23T03:00:59;5.13;;;2.23;;
68921;SDS011;55959;51.244;5.724;2024-03-23T03:03:25;5.27;;;2.40;;
68921;SDS011;55959;51.244;5.724;2024-03-23T03:05:57;4.70;;;2.63;;
68921;SDS011;55959;51.244;5.724;2024-03-23T03:08:23;6.43;;;2.90;;
68921;SDS011;55959;51.244;5.724;2024-03-23T03:10:48;3.47;;;2.27;;
68921;SDS011;55959;51.244;5.724;2024-03-23T03:13:14;4.90;;;2.77;;
68921;SDS011;55959;51.244;5.724;2024-03-23T03:15:43;4.17;;;2.30;;
68921;SDS011;55959;51.244;5.724;2024-03-23T03:18:09;3.10;;;1.90;;
68921;SDS011;55959;51.244;5.724;2024-03-23T03:20:38;6.57;;;2.60;;
68921;SDS011;55959;51.244;5.724;2024-03-23T03:23:05;5.47;;;2.33;;
68921;SDS011;55959;51.244;5.724;2024-03-23T03:25:31;6.27;;;2.27;;
68921;SDS011;55959;51.244;5.724;2024-03-23T03:27:57;4.77;;;2.27;;
68921;SDS011;55959;51.244;5.724;2024-03-23T03:30:22;6.93;;;2.50;;
68921;SDS011;55959;51.244;5.724;2024-03-23T03:32:49;7.37;;;3.30;;
68921;SDS011;55959;51.244;5.724;2024-03-23T03:35:16;3.90;;;2.20;;
68921;SDS011;55959;51.244;5.724;2024-03-23T03:37:42;4.27;;;2.10;;
68921;SDS011;55959;51.244;5.724;2024-03-23T03:40:08;4.37;;;2.10;;
68921;SDS011;55959;51.244;5.724;2024-03-23T03:42:34;4.33;;;2.57;;
68921;SDS011;55959;51.244;5.724;2024-03-23T03:45:00;6.53;;;2.73;;
68921;SDS011;55959;51.244;5.724;2024-03-23T03:47:26;5.07;;;2.13;;
68921;SDS011;55959;51.244;5.724;2024-03-23T03:49:52;4.37;;;2.27;;
68921;SDS011;55959;51.244;5.724;2024-03-23T03:52:17;7.93;;;3.17;;
68921;SDS011;55959;51.244;5.724;2024-03-23T03:54:43;8.10;;;3.20;;
68921;SDS011;55959;51.244;5.724;2024-03-23T03:57:09;7.23;;;3.07;;
68921;SDS011;55959;51.244;5.724;2024-03-23T03:59:34;7.40;;;2.60;;
68921;SDS011;55959;51.244;5.724;2024-03-23T04:02:00;6.63;;;2.40;;
68921;SDS011;55959;51.244;5.724;2024-03-23T04:04:26;4.57;;;2.57;;
68921;SDS011;55959;51.244;5.724;2024-03-23T04:07:00;5.43;;;2.33;;
68921;SDS011;55959;51.244;5.724;2024-03-23T04:09:27;5.53;;;2.60;;
68921;SDS011;55959;51.244;5.724;2024-03-23T04:11:54;4.77;;;2.70;;
68921;SDS011;55959;51.244;5.724;2024-03-23T04:14:19;4.97;;;2.60;;
68921;SDS011;55959;51.244;5.724;2024-03-23T04:16:45;9.00;;;2.90;;
68921;SDS011;55959;51.244;5.724;2024-03-23T04:19:11;6.37;;;2.80;;
68921;SDS011;55959;51.244;5.724;2024-03-23T04:21:37;7.13;;;2.67;;
68921;SDS011;55959;51.244;5.724;2024-03-23T04:24:03;7.70;;;2.70;;
68921;SDS011;55959;51.244;5.724;2024-03-23T04:26:30;11.97;;;3.63;;
68921;SDS011;55959;51.244;5.724;2024-03-23T04:28:55;6.43;;;2.77;;
68921;SDS011;55959;51.244;5.724;2024-03-23T04:31:21;6.87;;;3.13;;
68921;SDS011;55959;51.244;5.724;2024-03-23T04:33:47;5.90;;;2.90;;
68921;SDS011;55959;51.244;5.724;2024-03-23T04:36:13;5.37;;;2.67;;
68921;SDS011;55959;51.244;5.724;2024-03-23T04:38:38;4.23;;;2.80;;
68921;SDS011;55959;51.244;5.724;2024-03-23T04:41:04;7.70;;;2.93;;
68921;SDS011;55959;51.244;5.724;2024-03-23T04:43:30;6.53;;;2.50;;
68921;SDS011;55959;51.244;5.724;2024-03-23T04:45:55;8.63;;;3.13;;
68921;SDS011;55959;51.244;5.724;2024-03-23T04:48:21;7.50;;;3.13;;
68921;SDS011;55959;51.244;5.724;2024-03-23T04:50:54;6.87;;;3.10;;
68921;SDS011;55959;51.244;5.724;2024-03-23T04:53:23;5.23;;;3.10;;
68921;SDS011;55959;51.244;5.724;2024-03-23T04:55:53;5.70;;;3.07;;
68921;SDS011;55959;51.244;5.724;2024-03-23T04:58:22;6.30;;;2.83;;
68921;SDS011;55959;51.244;5.724;2024-03-23T05:00:54;4.93;;;2.93;;
68921;SDS011;55959;51.244;5.724;2024-03-23T05:03:20;6.93;;;3.00;;
68921;SDS011;55959;51.244;5.724;2024-03-23T05:05:47;6.03;;;3.33;;
68921;SDS011;55959;51.244;5.724;2024-03-23T05:08:14;4.90;;;2.63;;
68921;SDS011;55959;51.244;5.724;2024-03-23T05:10:43;5.67;;;3.17;;
68921;SDS011;55959;51.244;5.724;2024-03-23T05:13:09;5.03;;;2.40;;
68921;SDS011;55959;51.244;5.724;2024-03-23T05:15:35;7.57;;;3.13;;
68921;SDS011;55959;51.244;5.724;2024-03-23T05:18:00;7.03;;;3.50;;
68921;SDS011;55959;51.244;5.724;2024-03-23T05:20:27;7.07;;;3.33;;
68921;SDS011;55959;51.244;5.724;2024-03-23T05:22:54;4.10;;;2.90;;
68921;SDS011;55959;51.244;5.724;2024-03-23T05:25:20;6.53;;;3.30;;
68921;SDS011;55959;51.244;5.724;2024-03-23T05:27:46;6.60;;;3.50;;
68921;SDS011;55959;51.244;5.724;2024-03-23T05:30:12;6.83;;;3.00;;
68921;SDS011;55959;51.244;5.724;2024-03-23T05:32:38;8.63;;;3.70;;
68921;SDS011;55959;51.244;5.724;2024-03-23T05:35:05;5.70;;;2.97;;
68921;SDS011;55959;51.244;5.724;2024-03-23T05:37:33;6.33;;;3.33;;
68921;SDS011;55959;51.244;5.724;2024-03-23T05:39:59;8.53;;;4.17;;
68921;SDS011;55959;51.244;5.724;2024-03-23T05:42:25;6.43;;;3.03;;
68921;SDS011;55959;51.244;5.724;2024-03-23T05:44:51;7.13;;;3.53;;
68921;SDS011;55959;51.244;5.724;2024-03-23T05:47:17;6.63;;;4.00;;
68921;SDS011;55959;51.244;5.724;2024-03-23T05:49:43;7.17;;;3.77;;
68921;SDS011;55959;51.244;5.724;2024-03-23T05:52:11;5.93;;;3.97;;
68921;SDS011;55959;51.244;5.724;2024-03-23T05:54:37;7.43;;;4.07;;
68921;SDS011;55959;51.244;5.724;2024-03-23T05:57:03;8.73;;;3.47;;
68921;SDS011;55959;51.244;5.724;2024-03-23T05:59:29;6.83;;;4.37;;
68921;SDS011;55959;51.244;5.724;2024-03-23T06:01:56;5.57;;;3.73;;
68921;SDS011;55959;51.244;5.724;2024-03-23T06:04:22;7.87;;;4.50;;
68921;SDS011;55959;51.244;5.724;2024-03-23T06:06:47;7.17;;;3.87;;
68921;SDS011;55959;51.244;5.724;2024-03-23T06:09:13;8.70;;;4.13;;
68921;SDS011;55959;51.244;5.724;2024-03-23T06:11:39;6.73;;;4.27;;
68921;SDS011;55959;51.244;5.724;2024-03-23T06:14:05;6.60;;;4.27;;
68921;SDS011;55959;51.244;5.724;2024-03-23T06:16:31;8.53;;;4.07;;
68921;SDS011;55959;51.244;5.724;2024-03-23T06:18:56;8.13;;;5.13;;
68921;SDS011;55959;51.244;5.724;2024-03-23T06:21:23;7.80;;;4.80;;
68921;SDS011;55959;51.244;5.724;2024-03-23T06:23:52;7.40;;;4.30;;
68921;SDS011;55959;51.244;5.724;2024-03-23T06:26:19;8.97;;;4.73;;
68921;SDS011;55959;51.244;5.724;2024-03-23T06:28:45;6.93;;;4.27;;
68921;SDS011;55959;51.244;5.724;2024-03-23T06:31:12;11.23;;;5.20;;
68921;SDS011;55959;51.244;5.724;2024-03-23T06:33:38;7.83;;;4.60;;
68921;SDS011;55959;51.244;5.724;2024-03-23T06:36:04;9.40;;;4.73;;
68921;SDS011;55959;51.244;5.724;2024-03-23T06:38:31;9.17;;;4.37;;
68921;SDS011;55959;51.244;5.724;2024-03-23T06:40:57;10.17;;;4.60;;
68921;SDS011;55959;51.244;5.724;2024-03-23T06:43:22;8.77;;;4.83;;
68921;SDS011;55959;51.244;5.724;2024-03-23T06:45:52;7.23;;;3.67;;
68921;SDS011;55959;51.244;5.724;2024-03-23T06:48:19;6.83;;;3.40;;
68921;SDS011;55959;51.244;5.724;2024-03-23T06:50:45;7.50;;;3.47;;
68921;SDS011;55959;51.244;5.724;2024-03-23T06:53:14;4.47;;;2.73;;
68921;SDS011;55959;51.244;5.724;2024-03-23T06:55:41;6.77;;;2.97;;
68921;SDS011;55959;51.244;5.724;2024-03-23T06:58:07;6.60;;;3.10;;
68921;SDS011;55959;51.244;5.724;2024-03-23T07:00:33;4.57;;;2.60;;
68921;SDS011;55959;51.244;5.724;2024-03-23T07:02:59;2.90;;;2.40;;
68921;SDS011;55959;51.244;5.724;2024-03-23T07:05:25;5.37;;;2.83;;
68921;SDS011;55959;51.244;5.724;2024-03-23T07:07:51;3.83;;;2.20;;
68921;SDS011;55959;51.244;5.724;2024-03-23T07:10:17;4.70;;;2.37;;
68921;SDS011;55959;51.244;5.724;2024-03-23T07:12:43;6.03;;;2.47;;
68921;SDS011;55959;51.244;5.724;2024-03-23T07:15:09;4.47;;;2.47;;
68921;SDS011;55959;51.244;5.724;2024-03-23T07:17:35;4.80;;;1.80;;
68921;SDS011;55959;51.244;5.724;2024-03-23T07:20:04;6.20;;;1.90;;
68921;SDS011;55959;51.244;5.724;2024-03-23T07:22:30;4.23;;;1.87;;
68921;SDS011;55959;51.244;5.724;2024-03-23T07:24:56;5.40;;;2.27;;
68921;SDS011;55959;51.244;5.724;2024-03-23T07:27:25;5.70;;;2.33;;
68921;SDS011;55959;51.244;5.724;2024-03-23T07:29:51;6.90;;;2.40;;
68921;SDS011;55959;51.244;5.724;2024-03-23T07:32:16;4.63;;;2.30;;
68921;SDS011;55959;51.244;5.724;2024-03-23T07:34:42;4.60;;;2.37;;
68921;SDS011;55959;51.244;5.724;2024-03-23T07:37:09;5.77;;;2.70;;
68921;SDS011;55959;51.244;5.724;2024-03-23T07:39:35;5.33;;;2.53;;
68921;SDS011;55959;51.244;5.724;2024-03-23T07:42:01;5.23;;;2.23;;
68921;SDS011;55959;51.244;5.724;2024-03-23T07:44:27;8.13;;;2.60;;
68921;SDS011;55959;51.244;5.724;2024-03-23T07:46:53;5.80;;;2.03;;
68921;SDS011;55959;51.244;5.724;2024-03-23T07:49:19;5.20;;;2.03;;
68921;SDS011;55959;51.244;5.724;2024-03-23T07:51:44;4.57;;;1.90;;
68921;SDS011;55959;51.244;5.724;2024-03-23T07:54:10;5.43;;;2.13;;
68921;SDS011;55959;51.244;5.724;2024-03-23T07:56:36;8.53;;;2.97;;
68921;SDS011;55959;51.244;5.724;2024-03-23T07:59:02;5.53;;;2.27;;
68921;SDS011;55959;51.244;5.724;2024-03-23T08:01:30;5.63;;;2.77;;
68921;SDS011;55959;51.244;5.724;2024-03-23T08:03:56;10.70;;;3.37;;
68921;SDS011;55959;51.244;5.724;2024-03-23T08:06:22;6.63;;;2.47;;
68921;SDS011;55959;51.244;5.724;2024-03-23T08:08:49;6.00;;;3.00;;
68921;SDS011;55959;51.244;5.724;2024-03-23T08:11:25;4.67;;;2.43;;
68921;SDS011;55959;51.244;5.724;2024-03-23T08:13:52;7.83;;;2.43;;
68921;SDS011;55959;51.244;5.724;2024-03-23T08:16:17;5.20;;;2.30;;
68921;SDS011;55959;51.244;5.724;2024-03-23T08:18:43;6.40;;;2.60;;
68921;SDS011;55959;51.244;5.724;2024-03-23T08:21:09;7.27;;;2.80;;
68921;SDS011;55959;51.244;5.724;2024-03-23T08:23:35;6.50;;;3.03;;
68921;SDS011;55959;51.244;5.724;2024-03-23T08:26:09;8.43;;;3.20;;
68921;SDS011;55959;51.244;5.724;2024-03-23T08:28:37;8.67;;;2.80;;
68921;SDS011;55959;51.244;5.724;2024-03-23T08:31:05;8.20;;;3.00;;
68921;SDS011;55959;51.244;5.724;2024-03-23T08:33:33;9.27;;;2.90;;
68921;SDS011;55959;51.244;5.724;2024-03-23T08:36:06;8.77;;;3.77;;
68921;SDS011;55959;51.244;5.724;2024-03-23T08:38:33;9.57;;;3.30;;
68921;SDS011;55959;51.244;5.724;2024-03-23T08:41:07;7.30;;;2.50;;
68921;SDS011;55959;51.244;5.724;2024-03-23T08:43:38;6.73;;;2.50;;
68921;SDS011;55959;51.244;5.724;2024-03-23T08:46:09;6.57;;;2.13;;
68921;SDS011;55959;51.244;5.724;2024-03-23T08:48:41;7.33;;;2.87;;
68921;SDS011;55959;51.244;5.724;2024-03-23T08:51:14;6.80;;;2.47;;
68921;SDS011;55959;51.244;5.724;2024-03-23T08:53:42;8.13;;;2.80;;
68921;SDS011;55959;51.244;5.724;2024-03-23T08:56:09;5.67;;;2.27;;
68921;SDS011;55959;51.244;5.724;2024-03-23T08:58:35;3.73;;;1.53;;
68921;SDS011;55959;51.244;5.724;2024-03-23T09:01:09;4.83;;;1.70;;
68921;SDS011;55959;51.244;5.724;2024-03-23T09:03:38;7.97;;;2.50;;
68921;SDS011;55959;51.244;5.724;2024-03-23T09:06:08;7.00;;;2.60;;
68921;SDS011;55959;51.244;5.724;2024-03-23T09:08:39;6.03;;;1.83;;
68921;SDS011;55959;51.244;5.724;2024-03-23T09:11:12;8.33;;;2.60;;
68921;SDS011;55959;51.244;5.724;2024-03-23T09:13:38;5.43;;;2.20;;
68921;SDS011;55959;51.244;5.724;2024-03-23T09:16:05;5.60;;;1.93;;
68921;SDS011;55959;51.244;5.724;2024-03-23T09:18:32;3.03;;;1.47;;
68921;SDS011;55959;51.244;5.724;2024-03-23T09:20:58;2.80;;;1.23;;
68921;SDS011;55959;51.244;5.724;2024-03-23T09:23:24;3.23;;;1.27;;
68921;SDS011;55959;51.244;5.724;2024-03-23T09:25:50;3.13;;;1.20;;
68921;SDS011;55959;51.244;5.724;2024-03-23T09:28:16;3.23;;;1.23;;
68921;SDS011;55959;51.244;5.724;2024-03-23T09:30:41;4.20;;;1.33;;
68921;SDS011;55959;51.244;5.724;2024-03-23T09:33:14;4.23;;;1.33;;
68921;SDS011;55959;51.244;5.724;2024-03-23T09:35:40;2.00;;;1.23;;
68921;SDS011;55959;51.244;5.724;2024-03-23T09:38:07;5.10;;;1.27;;
68921;SDS011;55959;51.244;5.724;2024-03-23T09:40:34;2.47;;;1.20;;
68921;SDS011;55959;51.244;5.724;2024-03-23T09:43:10;2.87;;;1.30;;
68921;SDS011;55959;51.244;5.724;2024-03-23T09:45:39;5.07;;;1.40;;
68921;SDS011;55959;51.244;5.724;2024-03-23T09:48:06;4.13;;;1.33;;
68921;SDS011;55959;51.244;5.724;2024-03-23T09:50:36;2.83;;;1.20;;
68921;SDS011;55959;51.244;5.724;2024-03-23T09:53:11;3.50;;;1.40;;
68921;SDS011;55959;51.244;5.724;2024-03-23T09:55:39;3.57;;;1.03;;
68921;SDS011;55959;51.244;5.724;2024-03-23T09:58:07;4.10;;;1.33;;
68921;SDS011;55959;51.244;5.724;2024-03-23T10:00:37;2.20;;;0.93;;
68921;SDS011;55959;51.244;5.724;2024-03-23T10:03:03;2.30;;;1.00;;
68921;SDS011;55959;51.244;5.724;2024-03-23T10:05:31;3.87;;;1.20;;
68921;SDS011;55959;51.244;5.724;2024-03-23T10:10:39;3.83;;;1.10;;
68921;SDS011;55959;51.244;5.724;2024-03-23T10:13:08;2.13;;;1.00;;
68921;SDS011;55959;51.244;5.724;2024-03-23T10:15:35;4.00;;;1.60;;
68921;SDS011;55959;51.244;5.724;2024-03-23T10:18:17;2.97;;;1.47;;
68921;SDS011;55959;51.244;5.724;2024-03-23T10:20:45;4.33;;;1.60;;
68921;SDS011;55959;51.244;5.724;2024-03-23T10:23:16;4.20;;;1.63;;
68921;SDS011;55959;51.244;5.724;2024-03-23T10:25:42;5.63;;;2.00;;
68921;SDS011;55959;51.244;5.724;2024-03-23T10:28:08;3.43;;;1.70;;
68921;SDS011;55959;51.244;5.724;2024-03-23T10:30:34;5.63;;;1.83;;
68921;SDS011;55959;51.244;5.724;2024-03-23T10:33:10;2.90;;;1.83;;
68921;SDS011;55959;51.244;5.724;2024-03-23T10:35:37;4.37;;;2.10;;
68921;SDS011;55959;51.244;5.724;2024-03-23T10:38:04;4.73;;;2.10;;
68921;SDS011;55959;51.244;5.724;2024-03-23T10:40:34;4.20;;;2.10;;
68921;SDS011;55959;51.244;5.724;2024-03-23T10:43:00;4.37;;;2.07;;
68921;SDS011;55959;51.244;5.724;2024-03-23T10:45:29;1.63;;;1.10;;
68921;SDS011;55959;51.244;5.724;2024-03-23T10:47:55;1.60;;;0.77;;
68921;SDS011;55959;51.244;5.724;2024-03-23T10:50:21;2.80;;;0.73;;
68921;SDS011;55959;51.244;5.724;2024-03-23T10:52:48;1.70;;;0.77;;
68921;SDS011;55959;51.244;5.724;2024-03-23T10:55:16;1.63;;;0.73;;
68921;SDS011;55959;51.244;5.724;2024-03-23T10:57:54;3.03;;;1.10;;
68921;SDS011;55959;51.244;5.724;2024-03-23T11:00:21;2.80;;;0.93;;
68921;SDS011;55959;51.244;5.724;2024-03-23T11:02:48;2.33;;;0.90;;
68921;SDS011;55959;51.244;5.724;2024-03-23T11:07:52;3.03;;;1.10;;
68921;SDS011;55959;51.244;5.724;2024-03-23T11:10:30;3.80;;;1.30;;
68921;SDS011;55959;51.244;5.724;2024-03-23T11:12:58;1.10;;;0.80;;
68921;SDS011;55959;51.244;5.724;2024-03-23T11:15:47;2.30;;;1.17;;
68921;SDS011;55959;51.244;5.724;2024-03-23T11:18:12;1.77;;;1.03;;
68921;SDS011;55959;51.244;5.724;2024-03-23T11:20:46;3.90;;;1.30;;
68921;SDS011;55959;51.244;5.724;2024-03-23T11:23:27;4.37;;;1.27;;
68921;SDS011;55959;51.244;5.724;2024-03-23T11:25:54;2.77;;;1.27;;
68921;SDS011;55959;51.244;5.724;2024-03-23T11:28:19;3.83;;;1.00;;
68921;SDS011;55959;51.244;5.724;2024-03-23T11:30:46;4.20;;;1.13;;
68921;SDS011;55959;51.244;5.724;2024-03-23T11:33:12;2.20;;;1.00;;
68921;SDS011;55959;51.244;5.724;2024-03-23T11:35:38;1.20;;;0.80;;
68921;SDS011;55959;51.244;5.724;2024-03-23T11:38:09;2.97;;;1.10;;
68921;SDS011;55959;51.244;5.724;2024-03-23T11:40:37;3.00;;;0.80;;
68921;SDS011;55959;51.244;5.724;2024-03-23T11:43:06;2.40;;;0.63;;
68921;SDS011;55959;51.244;5.724;2024-03-23T11:45:44;2.47;;;0.90;;
68921;SDS011;55959;51.244;5.724;2024-03-23T11:48:21;6.00;;;1.10;;
68921;SDS011;55959;51.244;5.724;2024-03-23T11:50:49;1.90;;;0.90;;
68921;SDS011;55959;51.244;5.724;2024-03-23T11:53:21;1.97;;;0.70;;
68921;SDS011;55959;51.244;5.724;2024-03-23T11:55:49;2.23;;;1.10;;
68921;SDS011;55959;51.244;5.724;2024-03-23T11:58:17;3.10;;;0.90;;
68921;SDS011;55959;51.244;5.724;2024-03-23T12:00:58;2.10;;;1.03;;
68921;SDS011;55959;51.244;5.724;2024-03-23T12:03:27;2.67;;;0.80;;
68921;SDS011;55959;51.244;5.724;2024-03-23T12:05:54;0.77;;;0.47;;
68921;SDS011;55959;51.244;5.724;2024-03-23T12:10:49;0.40;;;0.30;;
68921;SDS011;55959;51.244;5.724;2024-03-23T12:13:40;1.27;;;0.50;;
68921;SDS011;55959;51.244;5.724;2024-03-23T12:18:35;1.40;;;0.67;;
68921;SDS011;55959;51.244;5.724;2024-03-23T12:21:02;2.57;;;0.77;;
68921;SDS011;55959;51.244;5.724;2024-03-23T12:23:28;1.63;;;0.40;;
68921;SDS011;55959;51.244;5.724;2024-03-23T12:25:54;2.90;;;0.80;;
68921;SDS011;55959;51.244;5.724;2024-03-23T12:28:19;1.37;;;0.70;;
68921;SDS011;55959;51.244;5.724;2024-03-23T12:30:45;1.87;;;0.70;;
68921;SDS011;55959;51.244;5.724;2024-03-23T12:33:11;1.43;;;0.77;;
68921;SDS011;55959;51.244;5.724;2024-03-23T12:35:37;2.27;;;1.27;;
68921;SDS011;55959;51.244;5.724;2024-03-23T12:38:02;2.03;;;1.10;;
68921;SDS011;55959;51.244;5.724;2024-03-23T12:40:29;2.63;;;1.00;;
68921;SDS011;55959;51.244;5.724;2024-03-23T12:42:55;2.70;;;1.00;;
68921;SDS011;55959;51.244;5.724;2024-03-23T12:45:23;2.13;;;0.80;;
68921;SDS011;55959;51.244;5.724;2024-03-23T12:47:49;2.87;;;0.83;;
68921;SDS011;55959;51.244;5.724;2024-03-23T12:50:18;2.07;;;0.97;;
68921;SDS011;55959;51.244;5.724;2024-03-23T12:52:44;1.33;;;0.70;;
68921;SDS011;55959;51.244;5.724;2024-03-23T12:55:10;1.23;;;0.70;;
68921;SDS011;55959;51.244;5.724;2024-03-23T12:57:36;3.17;;;0.90;;
68921;SDS011;55959;51.244;5.724;2024-03-23T13:00:02;1.53;;;0.80;;
68921;SDS011;55959;51.244;5.724;2024-03-23T13:02:29;2.03;;;0.63;;
68921;SDS011;55959;51.244;5.724;2024-03-23T13:04:55;2.00;;;0.87;;
68921;SDS011;55959;51.244;5.724;2024-03-23T13:07:22;2.37;;;1.00;;
68921;SDS011;55959;51.244;5.724;2024-03-23T13:09:51;2.77;;;1.00;;
68921;SDS011;55959;51.244;5.724;2024-03-23T13:12:18;1.90;;;0.77;;
68921;SDS011;55959;51.244;5.724;2024-03-23T13:14:45;0.83;;;0.50;;
68921;SDS011;55959;51.244;5.724;2024-03-23T13:17:11;0.73;;;0.60;;
68921;SDS011;55959;51.244;5.724;2024-03-23T13:19:37;0.60;;;0.37;;
68921;SDS011;55959;51.244;5.724;2024-03-23T13:22:03;0.97;;;0.43;;
68921;SDS011;55959;51.244;5.724;2024-03-23T13:24:29;1.13;;;0.30;;
68921;SDS011;55959;51.244;5.724;2024-03-23T13:26:56;1.30;;;0.50;;
68921;SDS011;55959;51.244;5.724;2024-03-23T13:29:22;1.03;;;0.40;;
68921;SDS011;55959;51.244;5.724;2024-03-23T13:31:49;0.83;;;0.43;;
68921;SDS011;55959;51.244;5.724;2024-03-23T13:34:17;1.33;;;0.60;;
68921;SDS011;55959;51.244;5.724;2024-03-23T13:36:43;0.93;;;0.40;;
68921;SDS011;55959;51.244;5.724;2024-03-23T13:39:10;1.30;;;0.80;;
68921;SDS011;55959;51.244;5.724;2024-03-23T13:41:46;0.77;;;0.50;;
68921;SDS011;55959;51.244;5.724;2024-03-23T13:44:12;1.07;;;0.50;;
68921;SDS011;55959;51.244;5.724;2024-03-23T13:46:39;0.60;;;0.30;;
68921;SDS011;55959;51.244;5.724;2024-03-23T13:49:29;0.80;;;0.60;;
68921;SDS011;55959;51.244;5.724;2024-03-23T13:51:56;1.40;;;0.70;;
68921;SDS011;55959;51.244;5.724;2024-03-23T13:54:23;0.73;;;0.60;;
68921;SDS011;55959;51.244;5.724;2024-03-23T13:56:53;1.17;;;0.50;;
68921;SDS011;55959;51.244;5.724;2024-03-23T13:59:20;1.30;;;1.03;;
68921;SDS011;55959;51.244;5.724;2024-03-23T14:01:48;1.20;;;0.70;;
68921;SDS011;55959;51.244;5.724;2024-03-23T14:04:14;1.67;;;0.80;;
68921;SDS011;55959;51.244;5.724;2024-03-23T14:06:42;1.83;;;0.70;;
68921;SDS011;55959;51.244;5.724;2024-03-23T14:09:11;2.70;;;0.67;;
68921;SDS011;55959;51.244;5.724;2024-03-23T14:11:37;2.17;;;0.90;;
68921;SDS011;55959;51.244;5.724;2024-03-23T14:14:03;2.00;;;0.77;;
68921;SDS011;55959;51.244;5.724;2024-03-23T14:16:32;1.83;;;0.70;;
68921;SDS011;55959;51.244;5.724;2024-03-23T14:18:58;2.70;;;0.83;;
68921;SDS011;55959;51.244;5.724;2024-03-23T14:21:24;2.10;;;0.93;;
68921;SDS011;55959;51.244;5.724;2024-03-23T14:23:50;1.10;;;0.70;;
68921;SDS011;55959;51.244;5.724;2024-03-23T14:26:16;1.23;;;0.80;;
68921;SDS011;55959;51.244;5.724;2024-03-23T14:28:42;2.83;;;0.70;;
68921;SDS011;55959;51.244;5.724;2024-03-23T14:31:08;1.43;;;0.60;;
68921;SDS011;55959;51.244;5.724;2024-03-23T14:33:38;1.70;;;0.90;;
68921;SDS011;55959;51.244;5.724;2024-03-23T14:36:12;1.97;;;0.60;;
68921;SDS011;55959;51.244;5.724;2024-03-23T14:38:42;1.67;;;1.00;;
68921;SDS011;55959;51.244;5.724;2024-03-23T14:41:12;1.83;;;0.70;;
68921;SDS011;55959;51.244;5.724;2024-03-23T14:43:39;1.93;;;0.57;;
68921;SDS011;55959;51.244;5.724;2024-03-23T14:48:36;0.77;;;0.43;;
68921;SDS011;55959;51.244;5.724;2024-03-23T14:51:02;1.00;;;0.60;;
68921;SDS011;55959;51.244;5.724;2024-03-23T14:53:30;1.13;;;0.60;;
68921;SDS011;55959;51.244;5.724;2024-03-23T14:55:57;1.40;;;0.40;;
68921;SDS011;55959;51.244;5.724;2024-03-23T14:58:23;0.57;;;0.40;;
68921;SDS011;55959;51.244;5.724;2024-03-23T15:00:49;0.50;;;0.40;;
68921;SDS011;55959;51.244;5.724;2024-03-23T15:03:16;1.70;;;0.70;;
68921;SDS011;55959;51.244;5.724;2024-03-23T15:05:51;0.70;;;0.27;;
68921;SDS011;55959;51.244;5.724;2024-03-23T15:08:27;0.67;;;0.33;;
68921;SDS011;55959;51.244;5.724;2024-03-23T15:10:54;1.50;;;0.40;;
68921;SDS011;55959;51.244;5.724;2024-03-23T15:13:20;0.77;;;0.40;;
68921;SDS011;55959;51.244;5.724;2024-03-23T15:15:48;0.90;;;0.40;;
68921;SDS011;55959;51.244;5.724;2024-03-23T15:18:14;1.07;;;0.57;;
68921;SDS011;55959;51.244;5.724;2024-03-23T15:20:41;1.03;;;0.50;;
68921;SDS011;55959;51.244;5.724;2024-03-23T15:23:07;2.77;;;0.80;;
68921;SDS011;55959;51.244;5.724;2024-03-23T15:25:33;3.30;;;0.77;;
68921;SDS011;55959;51.244;5.724;2024-03-23T15:27:59;1.13;;;0.53;;
68921;SDS011;55959;51.244;5.724;2024-03-23T15:30:25;0.90;;;0.40;;
68921;SDS011;55959;51.244;5.724;2024-03-23T15:32:51;1.90;;;0.40;;
68921;SDS011;55959;51.244;5.724;2024-03-23T15:35:17;0.40;;;0.40;;
68921;SDS011;55959;51.244;5.724;2024-03-23T15:37:46;0.63;;;0.40;;
68921;SDS011;55959;51.244;5.724;2024-03-23T15:40:12;1.60;;;0.50;;
68921;SDS011;55959;51.244;5.724;2024-03-23T15:42:38;0.83;;;0.60;;
68921;SDS011;55959;51.244;5.724;2024-03-23T15:45:06;1.07;;;0.40;;
68921;SDS011;55959;51.244;5.724;2024-03-23T15:47:32;1.00;;;0.40;;
68921;SDS011;55959;51.244;5.724;2024-03-23T15:49:59;2.40;;;0.60;;
68921;SDS011;55959;51.244;5.724;2024-03-23T15:52:25;2.23;;;0.60;;
68921;SDS011;55959;51.244;5.724;2024-03-23T15:54:51;1.00;;;0.63;;